createdAt,value
2022-11-12T00:00:59.370Z,99339.47
2022-11-12T00:03:27.131Z,99324.81
2022-11-12T00:05:54.088Z,99319.66
2022-11-12T00:08:21.135Z,99351.53
2022-11-12T00:10:48.370Z,99315.34
2022-11-12T00:13:15.392Z,99287.84
2022-11-12T00:15:42.316Z,99282.66
2022-11-12T00:18:09.318Z,99287.84
2022-11-12T00:20:36.091Z,99317.06
2022-11-12T00:23:02.916Z,99264.59
2022-11-12T00:25:29.854Z,99246.53
2022-11-12T00:28:05.680Z,99269.75
2022-11-12T00:30:32.613Z,99269.75
2022-11-12T00:33:02.912Z,99305.88
2022-11-12T00:35:32.609Z,99274.06
2022-11-12T00:38:00.596Z,99270.59
2022-11-12T00:40:28.065Z,99280.94
2022-11-12T00:42:54.828Z,99293.84
2022-11-12T00:45:21.599Z,99286.13
2022-11-12T00:47:48.970Z,99275.78
2022-11-12T00:50:16.342Z,99287.81
2022-11-12T00:52:43.567Z,99277.53
2022-11-12T00:55:10.715Z,99293.84
2022-11-12T00:57:37.534Z,99273.22
2022-11-12T01:00:06.457Z,99313.66
2022-11-12T01:02:38.646Z,99295.56
2022-11-12T01:05:09.362Z,99275.78
2022-11-12T01:07:36.146Z,99290.41
2022-11-12T01:10:03.062Z,99278.38
2022-11-12T01:12:32.345Z,99265.44
2022-11-12T01:14:59.496Z,99243.09
2022-11-12T01:17:26.280Z,99258.56
2022-11-12T01:19:53.080Z,99248.25
2022-11-12T01:22:19.902Z,99265.47
2022-11-12T01:24:46.658Z,99243.09
2022-11-12T01:27:13.428Z,99236.19
2022-11-12T01:29:41.151Z,99243.09
2022-11-12T01:32:08.092Z,99248.25
2022-11-12T01:34:35.160Z,99245.69
2022-11-12T01:37:01.884Z,99232.78
2022-11-12T01:39:28.658Z,99242.25
2022-11-12T01:41:55.458Z,99234.50
2022-11-12T01:44:29.193Z,99233.63
2022-11-12T01:46:55.884Z,99225.91
2022-11-12T01:49:39.491Z,99243.09
2022-11-12T01:52:15.936Z,99213.88
2022-11-12T01:54:46.901Z,99221.59
2022-11-12T01:57:39.348Z,99234.50
2022-11-12T02:00:10.568Z,99219.00
2022-11-12T02:02:38.598Z,99246.53
2022-11-12T02:05:09.102Z,99215.56
2022-11-12T02:07:38.942Z,99262.03
2022-11-12T02:10:07.691Z,99242.25
2022-11-12T02:12:53.324Z,99231.06
2022-11-12T02:15:41.146Z,99212.13
2022-11-12T02:18:08.775Z,99209.53
2022-11-12T02:20:39.009Z,99200.94
2022-11-12T02:23:08.178Z,99200.94
2022-11-12T02:25:36.097Z,99194.06
2022-11-12T02:28:08.317Z,99200.09
2022-11-12T02:30:42.277Z,99206.97
2022-11-12T02:33:09.013Z,99211.25
2022-11-12T02:35:36.141Z,99184.59
2022-11-12T02:38:03.575Z,99187.19
2022-11-12T02:40:30.531Z,99188.91
2022-11-12T02:42:57.265Z,99182.03
2022-11-12T02:45:24.168Z,99183.72
2022-11-12T02:47:50.924Z,99177.72
2022-11-12T02:50:18.222Z,99178.56
2022-11-12T02:52:44.999Z,99166.50
2022-11-12T02:55:12.846Z,99167.41
2022-11-12T02:57:40.146Z,99172.53
2022-11-12T03:00:10.749Z,99169.97
2022-11-12T03:02:42.721Z,99183.72
2022-11-12T03:05:13.083Z,99181.13
2022-11-12T03:07:39.904Z,99176.81
2022-11-12T03:10:07.471Z,99172.50
2022-11-12T03:12:34.251Z,99163.91
2022-11-12T03:15:01.024Z,99165.63
2022-11-12T03:17:27.779Z,99169.06
2022-11-12T03:19:54.499Z,99169.94
2022-11-12T03:22:21.210Z,99162.16
2022-11-12T03:24:47.959Z,99157.00
2022-11-12T03:27:15.188Z,99159.56
2022-11-12T03:29:41.890Z,99144.94
2022-11-12T03:32:09.128Z,99158.72
2022-11-12T03:34:35.847Z,99140.63
2022-11-12T03:37:03.126Z,99140.63
2022-11-12T03:39:29.888Z,99120.84
2022-11-12T03:41:56.578Z,99125.97
2022-11-12T03:44:23.288Z,99133.75
2022-11-12T03:46:50.036Z,99122.53
2022-11-12T03:49:16.770Z,99122.53
2022-11-12T03:51:43.519Z,99132.00
2022-11-12T03:54:10.249Z,99153.53
2022-11-12T03:56:36.988Z,99150.06
2022-11-12T03:59:04.239Z,99156.97
2022-11-12T04:01:31.307Z,99128.56
2022-11-12T04:03:58.133Z,99128.56
2022-11-12T04:06:43.737Z,99125.97
2022-11-12T04:09:10.536Z,99136.31
2022-11-12T04:11:37.288Z,99115.59
2022-11-12T04:14:04.117Z,99144.00
2022-11-12T04:16:49.471Z,99098.38
2022-11-12T04:19:35.007Z,99096.66
2022-11-12T04:22:07.178Z,99082.00
2022-11-12T04:24:56.408Z,99099.25
2022-11-12T04:27:24.574Z,99096.63
2022-11-12T04:30:10.878Z,99115.56
2022-11-12T04:32:39.993Z,99120.72
2022-11-12T04:35:09.066Z,99091.44
2022-11-12T04:37:46.375Z,99088.03
2022-11-12T04:40:38.506Z,99089.72
2022-11-12T04:43:25.734Z,99091.44
2022-11-12T04:45:54.845Z,99106.94
2022-11-12T04:48:24.464Z,99107.78
2022-11-12T04:51:00.571Z,99097.41
2022-11-12T04:53:28.293Z,99084.53
2022-11-12T04:55:57.047Z,99081.06
2022-11-12T04:58:25.189Z,99086.22
2022-11-12T05:00:52.378Z,99089.66
2022-11-12T05:03:19.221Z,99103.41
2022-11-12T05:05:45.970Z,99076.72
2022-11-12T05:08:12.689Z,99082.75
2022-11-12T05:10:39.447Z,99074.13
2022-11-12T05:13:06.127Z,99091.34
2022-11-12T05:15:32.870Z,99093.91
2022-11-12T05:17:59.757Z,99072.34
2022-11-12T05:20:26.542Z,99075.84
2022-11-12T05:23:06.607Z,99091.34
2022-11-12T05:25:35.911Z,99083.56
2022-11-12T05:28:02.958Z,99093.06
2022-11-12T05:30:29.722Z,99074.94
2022-11-12T05:32:56.440Z,99110.25
2022-11-12T05:35:23.256Z,99075.81
2022-11-12T05:37:49.984Z,99083.56
2022-11-12T05:40:16.739Z,99094.75
2022-11-12T05:42:45.281Z,99084.41
2022-11-12T05:45:13.239Z,99080.94
2022-11-12T05:47:40.080Z,99075.81
2022-11-12T05:50:07.425Z,99068.06
2022-11-12T05:52:34.135Z,99060.28
2022-11-12T05:55:01.004Z,99056.81
2022-11-12T05:57:27.997Z,99061.94
2022-11-12T05:59:54.742Z,99068.84
2022-11-12T06:02:21.770Z,99070.56
2022-11-12T06:04:48.587Z,99074.00
2022-11-12T06:07:15.362Z,99060.19
2022-11-12T06:09:42.177Z,99075.69
2022-11-12T06:12:09.068Z,99061.03
2022-11-12T06:14:35.847Z,99097.19
2022-11-12T06:17:02.595Z,99099.78
2022-11-12T06:19:29.356Z,99048.94
2022-11-12T06:21:56.067Z,99086.88
2022-11-12T06:24:22.916Z,99058.41
2022-11-12T06:26:49.805Z,99054.09
2022-11-12T06:29:16.494Z,99057.50
2022-11-12T06:31:43.207Z,99059.28
2022-11-12T06:34:10.065Z,99069.63
2022-11-12T06:36:36.922Z,99039.41
2022-11-12T06:39:03.849Z,99039.41
2022-11-12T06:41:30.538Z,99023.91
2022-11-12T06:43:57.275Z,99031.66
2022-11-12T06:46:24.067Z,99044.53
2022-11-12T06:48:50.814Z,99047.94
2022-11-12T06:51:20.192Z,99054.84
2022-11-12T06:53:47.688Z,99045.38
2022-11-12T06:56:15.042Z,99040.19
2022-11-12T06:58:42.492Z,99032.41
2022-11-12T07:01:14.944Z,99022.06
2022-11-12T07:03:44.661Z,99003.09
2022-11-12T07:06:14.546Z,99007.41
2022-11-12T07:08:41.993Z,99003.06
2022-11-12T07:11:09.577Z,99001.38
2022-11-12T07:13:36.965Z,99003.03
2022-11-12T07:16:07.069Z,99008.22
2022-11-12T07:18:35.256Z,98992.69
2022-11-12T07:21:05.149Z,98995.25
2022-11-12T07:23:33.492Z,98988.34
2022-11-12T07:26:05.296Z,98980.56
2022-11-12T07:28:32.341Z,98972.81
2022-11-12T07:31:01.160Z,98957.22
2022-11-12T07:33:29.013Z,98955.44
2022-11-12T07:36:03.732Z,98968.34
2022-11-12T07:38:33.356Z,98946.59
2022-11-12T07:41:08.628Z,98954.25
2022-11-12T07:43:37.534Z,98937.75
2022-11-12T07:46:10.304Z,98934.38
2022-11-12T07:48:38.092Z,98949.88
2022-11-12T07:51:16.552Z,98954.13
2022-11-12T07:53:44.360Z,98935.13
2022-11-12T07:56:22.258Z,98927.22
2022-11-12T07:58:50.554Z,98908.97
2022-11-12T08:01:29.067Z,98934.72
2022-11-12T08:03:56.032Z,98918.53
2022-11-12T08:06:23.777Z,98917.59
2022-11-12T08:08:54.672Z,98952.03
2022-11-12T08:11:21.861Z,98918.34
2022-11-12T08:13:49.467Z,98929.66
2022-11-12T08:16:16.667Z,98921.22
2022-11-12T08:18:44.407Z,98914.34
2022-11-12T08:21:13.522Z,98895.34
2022-11-12T08:23:41.104Z,98888.44
2022-11-12T08:26:10.963Z,98886.66
2022-11-12T08:28:38.643Z,98905.59
2022-11-12T08:31:08.429Z,98891.81
2022-11-12T08:33:35.559Z,98866.94
2022-11-12T08:36:07.218Z,98893.84
2022-11-12T08:38:34.259Z,98844.69
2022-11-12T08:41:09.083Z,98845.56
2022-11-12T08:43:35.914Z,98849.13
2022-11-12T08:46:04.216Z,98842.22
2022-11-12T08:48:32.544Z,98824.88
2022-11-12T08:51:01.681Z,98848.16
2022-11-12T08:53:28.886Z,98824.88
2022-11-12T08:55:59.495Z,98852.44
2022-11-12T08:58:27.696Z,98842.00
2022-11-12T09:00:55.683Z,98837.81
2022-11-12T09:03:24.967Z,98836.09
2022-11-12T09:05:52.278Z,98811.09
2022-11-12T09:08:22.076Z,98817.09
2022-11-12T09:10:49.814Z,98813.63
2022-11-12T09:13:19.958Z,98787.72
2022-11-12T09:15:47.341Z,98788.56
2022-11-12T09:18:16.804Z,98774.81
2022-11-12T09:20:43.656Z,98804.09
2022-11-12T09:23:12.967Z,98824.81
2022-11-12T09:25:41.347Z,98774.78
2022-11-12T09:28:19.300Z,98760.88
2022-11-12T09:30:48.632Z,98779.88
2022-11-12T09:33:17.471Z,98769.50
2022-11-12T09:35:45.749Z,98746.19
2022-11-12T09:38:14.935Z,98736.69
2022-11-12T09:40:53.347Z,98736.72
2022-11-12T09:43:43.372Z,98751.44
2022-11-12T09:46:28.898Z,98721.31
2022-11-12T09:49:25.494Z,98721.31
2022-11-12T09:51:57.065Z,98702.34
2022-11-12T09:54:30.520Z,98694.56
2022-11-12T09:56:57.405Z,98683.38
2022-11-12T09:59:29.869Z,98685.00
2022-11-12T10:02:23.477Z,98716.88
2022-11-12T10:04:58.868Z,98684.94
2022-11-12T10:07:36.441Z,98686.66
2022-11-12T10:10:13.684Z,98678.84
2022-11-12T10:12:43.130Z,98662.44
2022-11-12T10:15:48.125Z,98653.69
2022-11-12T10:18:24.791Z,98666.78
2022-11-12T10:21:10.305Z,98690.09
2022-11-12T10:23:43.491Z,98665.97
2022-11-12T10:26:19.116Z,98654.75
2022-11-12T10:28:57.607Z,98652.06
2022-11-12T10:31:24.447Z,98652.06
2022-11-12T10:33:51.204Z,98641.66
2022-11-12T10:36:20.571Z,98669.22
2022-11-12T10:38:49.921Z,98637.28
2022-11-12T10:41:22.525Z,98662.31
2022-11-12T10:43:55.299Z,98671.81
2022-11-12T10:46:24.957Z,98654.59
2022-11-12T10:48:58.226Z,98677.06
2022-11-12T10:51:55.235Z,98680.47
2022-11-12T10:54:27.979Z,98638.13
2022-11-12T10:56:55.597Z,98619.97
2022-11-12T10:59:26.155Z,98632.94
2022-11-12T11:01:59.043Z,98632.16
2022-11-12T11:04:32.677Z,98659.72
2022-11-12T11:07:26.452Z,98622.59
2022-11-12T11:10:00.388Z,98621.81
2022-11-12T11:12:33.320Z,98604.63
2022-11-12T11:15:23.028Z,98608.94
2022-11-12T11:17:49.984Z,98582.19
2022-11-12T11:20:25.972Z,98587.38
2022-11-12T11:23:11.439Z,98583.09
2022-11-12T11:25:39.660Z,98579.69
2022-11-12T11:28:29.969Z,98574.41
2022-11-12T11:31:06.959Z,98551.25
2022-11-12T11:33:39.715Z,98533.13
2022-11-12T11:36:11.860Z,98528.81
2022-11-12T11:38:39.613Z,98526.28
2022-11-12T11:41:30.383Z,98568.56
2022-11-12T11:44:42.743Z,98511.47
2022-11-12T11:47:18.432Z,98512.47
2022-11-12T11:49:55.173Z,98512.47
2022-11-12T11:52:33.745Z,98512.50
2022-11-12T11:55:06.634Z,98497.09
2022-11-12T11:58:11.011Z,98497.97
2022-11-12T12:01:13.440Z,98513.31
2022-11-12T12:03:40.027Z,98478.03
2022-11-12T12:06:22.130Z,98466.00
2022-11-12T12:09:28.754Z,98462.53
2022-11-12T12:11:59.519Z,98514.38
2022-11-12T12:14:35.111Z,98460.03
2022-11-12T12:17:21.909Z,98472.91
2022-11-12T12:20:02.895Z,98442.81
2022-11-12T12:22:49.284Z,98440.19
2022-11-12T12:25:23.480Z,98438.59
2022-11-12T12:28:16.182Z,98433.31
2022-11-12T12:30:47.819Z,98418.69
2022-11-12T12:33:28.015Z,98434.28
2022-11-12T12:36:01.372Z,98412.72
2022-11-12T12:38:52.864Z,98420.47
2022-11-12T12:41:30.246Z,98400.59
2022-11-12T12:44:02.616Z,98392.81
2022-11-12T12:46:36.407Z,98416.00
2022-11-12T12:49:06.265Z,98382.28
2022-11-12T12:51:34.581Z,98376.31
2022-11-12T12:54:01.337Z,98395.22
2022-11-12T12:56:30.813Z,98408.09
2022-11-12T12:59:03.503Z,98391.63
2022-11-12T13:01:34.250Z,98359.59
2022-11-12T13:04:05.214Z,98367.28
2022-11-12T13:06:38.392Z,98357.69
2022-11-12T13:09:24.344Z,98388.53
2022-11-12T13:12:05.333Z,98362.59
2022-11-12T13:14:34.894Z,98344.34
2022-11-12T13:17:13.606Z,98355.44
2022-11-12T13:19:58.301Z,98319.16
2022-11-12T13:22:25.011Z,98330.34
2022-11-12T13:25:19.129Z,98325.13
2022-11-12T13:27:45.977Z,98371.72
2022-11-12T13:30:18.640Z,98362.09
2022-11-12T13:32:48.120Z,98358.56
2022-11-12T13:35:23.370Z,98304.97
2022-11-12T13:38:04.287Z,98322.19
2022-11-12T13:40:33.826Z,98356.69
2022-11-12T13:43:08.933Z,98384.25
2022-11-12T13:45:48.274Z,98314.16
2022-11-12T13:48:29.839Z,98321.91
2022-11-12T13:51:01.739Z,98321.00
2022-11-12T13:53:32.084Z,98334.88
2022-11-12T13:55:59.688Z,98326.16
2022-11-12T13:58:29.603Z,98357.22
2022-11-12T14:01:01.825Z,98353.75
2022-11-12T14:03:35.088Z,98345.06
2022-11-12T14:06:27.087Z,98365.72
2022-11-12T14:09:24.184Z,98351.72
2022-11-12T14:12:24.551Z,98355.09
2022-11-12T14:15:32.055Z,98342.22
2022-11-12T14:18:07.928Z,98360.38
2022-11-12T14:20:37.135Z,98357.75
2022-11-12T14:23:12.503Z,98356.06
2022-11-12T14:25:55.545Z,98350.81
2022-11-12T14:28:26.616Z,98355.13
2022-11-12T14:30:54.188Z,98357.66
2022-11-12T14:33:23.470Z,98387.00
2022-11-12T14:35:52.300Z,98370.50
2022-11-12T14:38:25.435Z,98360.16
2022-11-12T14:40:57.036Z,98411.94
2022-11-12T14:43:35.488Z,98344.44
2022-11-12T14:46:04.255Z,98372.13
2022-11-12T14:48:49.449Z,98357.25
2022-11-12T14:51:17.087Z,98386.56
2022-11-12T14:53:49.667Z,98376.00
2022-11-12T14:56:35.802Z,98396.69
2022-11-12T14:59:04.121Z,98369.03
2022-11-12T15:04:26.003Z,98391.38
2022-11-12T15:06:55.885Z,98366.19
2022-11-12T15:09:37.332Z,98348.00
2022-11-12T15:12:21.047Z,98384.34
2022-11-12T15:14:47.959Z,98397.31
2022-11-12T15:17:32.205Z,98356.59
2022-11-12T15:20:04.696Z,98402.44
2022-11-12T15:22:34.572Z,98366.00
2022-11-12T15:25:24.874Z,98360.81
2022-11-12T15:27:52.096Z,98353.09
2022-11-12T15:30:30.679Z,98334.13
2022-11-12T15:33:19.333Z,98337.53
2022-11-12T15:35:55.348Z,98324.63
2022-11-12T15:38:36.348Z,98341.00
2022-11-12T15:41:04.624Z,98355.75
2022-11-12T15:43:42.824Z,98360.81
2022-11-12T15:46:17.367Z,98346.78
2022-11-12T15:48:44.488Z,98345.03
2022-11-12T15:51:12.090Z,98343.31
2022-11-12T15:53:38.933Z,98351.81
2022-11-12T15:56:08.583Z,98338.91
2022-11-12T15:58:37.612Z,98338.91
2022-11-12T16:01:05.739Z,98326.81
2022-11-12T16:03:33.062Z,98370.72
2022-11-12T16:06:03.875Z,98341.09
2022-11-12T16:08:34.078Z,98368.75
2022-11-12T16:11:00.831Z,98357.53
2022-11-12T16:13:31.211Z,98363.38
2022-11-12T16:15:58.102Z,98364.03
2022-11-12T16:18:24.833Z,98375.09
2022-11-12T16:20:51.646Z,98344.88
2022-11-12T16:23:18.412Z,98396.81
2022-11-12T16:25:45.556Z,98404.56
2022-11-12T16:28:15.926Z,98340.56
2022-11-12T16:30:44.353Z,98361.31
2022-11-12T16:33:12.853Z,98373.31
2022-11-12T16:35:40.524Z,98329.91
2022-11-12T16:38:14.679Z,98408.53
2022-11-12T16:40:42.360Z,98327.94
2022-11-12T16:43:09.180Z,98366.72
2022-11-12T16:45:39.277Z,98352.88
2022-11-12T16:48:21.521Z,98343.31
2022-11-12T16:50:48.480Z,98360.59
2022-11-12T16:53:15.224Z,98366.59
2022-11-12T16:55:42.541Z,98351.91
2022-11-12T16:58:14.265Z,98364.88
2022-11-12T17:00:44.200Z,98354.63
2022-11-12T17:03:13.055Z,98364.16
2022-11-12T17:05:39.846Z,98374.56
2022-11-12T17:08:06.596Z,98345.13
2022-11-12T17:10:33.348Z,98355.50
2022-11-12T17:13:00.047Z,98346.06
2022-11-12T17:15:26.819Z,98378.88
2022-11-12T17:17:54.471Z,98373.66
2022-11-12T17:20:21.268Z,98350.31
2022-11-12T17:22:47.984Z,98400.47
2022-11-12T17:25:14.811Z,98363.28
2022-11-12T17:27:41.535Z,98391.88
2022-11-12T17:30:08.630Z,98355.59
2022-11-12T17:32:35.383Z,98442.06
2022-11-12T17:35:02.307Z,98402.31
2022-11-12T17:37:29.989Z,98398.91
2022-11-12T17:39:56.782Z,98400.63
2022-11-12T17:42:23.558Z,98413.56
2022-11-12T17:44:50.320Z,98429.28
2022-11-12T17:47:17.106Z,98457.81
2022-11-12T17:49:43.911Z,98430.16
2022-11-12T17:52:10.603Z,98431.09
2022-11-12T17:54:37.383Z,98409.38
2022-11-12T17:57:04.189Z,98391.34
2022-11-12T17:59:30.981Z,98432.94
2022-11-12T18:01:57.796Z,98390.53
2022-11-12T18:04:25.801Z,98417.34
2022-11-12T18:06:55.445Z,98403.56
2022-11-12T18:09:22.678Z,98415.72
2022-11-12T18:11:54.707Z,98406.25
2022-11-12T18:14:23.095Z,98404.56
2022-11-12T18:16:50.491Z,98425.34
2022-11-12T18:19:17.545Z,98432.28
2022-11-12T18:21:44.292Z,98409.84
2022-11-12T18:24:15.751Z,98442.66
2022-11-12T18:26:44.209Z,98383.97
2022-11-12T18:29:12.577Z,98413.47
2022-11-12T18:31:40.622Z,98417.84
2022-11-12T18:34:10.900Z,98434.25
2022-11-12T18:36:37.678Z,98426.44
2022-11-12T18:39:04.892Z,98436.00
2022-11-12T18:41:33.345Z,98401.50
2022-11-12T18:44:01.261Z,98426.63
2022-11-12T18:46:28.047Z,98428.34
2022-11-12T18:48:55.197Z,98431.00
2022-11-12T18:51:21.968Z,98425.00
2022-11-12T18:53:48.816Z,98412.03
2022-11-12T18:56:18.185Z,98419.88
2022-11-12T18:58:45.127Z,98406.13
2022-11-12T19:01:20.571Z,98474.50
2022-11-12T19:03:48.481Z,98434.78
2022-11-12T19:06:16.711Z,98431.44
2022-11-12T19:08:43.689Z,98450.41
2022-11-12T19:11:16.240Z,98455.59
2022-11-12T19:13:43.232Z,98463.41
2022-11-12T19:16:17.081Z,98441.81
2022-11-12T19:18:44.929Z,98467.81
2022-11-12T19:21:20.624Z,98455.72
2022-11-12T19:23:51.384Z,98486.06
2022-11-12T19:26:21.300Z,98511.09
2022-11-12T19:28:48.111Z,98455.66
2022-11-12T19:31:19.335Z,98503.09
2022-11-12T19:33:47.340Z,98474.63
2022-11-12T19:36:17.148Z,98480.69
2022-11-12T19:38:44.155Z,98486.78
2022-11-12T19:41:19.008Z,98471.16
2022-11-12T19:43:46.454Z,98475.53
2022-11-12T19:46:13.664Z,98481.59
2022-11-12T19:48:40.422Z,98494.56
2022-11-12T19:51:09.084Z,98490.22
2022-11-12T19:53:41.621Z,98497.09
2022-11-12T19:56:08.662Z,98492.75
2022-11-12T19:58:35.457Z,98479.81
2022-11-12T20:01:10.303Z,98502.28
2022-11-12T20:03:37.855Z,98507.53
2022-11-12T20:06:13.327Z,98501.47
2022-11-12T20:08:40.141Z,98508.25
2022-11-12T20:11:06.963Z,98492.72
2022-11-12T20:13:34.132Z,98510.06
2022-11-12T20:16:09.070Z,98498.69
2022-11-12T20:18:35.869Z,98515.19
2022-11-12T20:21:06.463Z,98520.38
2022-11-12T20:23:36.192Z,98496.13
2022-11-12T20:26:09.838Z,98512.53
2022-11-12T20:28:39.433Z,98524.66
2022-11-12T20:31:09.763Z,98514.28
2022-11-12T20:33:41.855Z,98488.34
2022-11-12T20:36:21.080Z,98512.66
2022-11-12T20:38:49.990Z,98467.81
2022-11-12T20:41:19.510Z,98494.66
2022-11-12T20:43:46.408Z,98502.44
2022-11-12T20:46:14.572Z,98499.94
2022-11-12T20:48:43.568Z,98493.00
2022-11-12T20:51:24.513Z,98489.59
2022-11-12T20:53:58.914Z,98520.00
2022-11-12T20:56:28.613Z,98485.41
2022-11-12T20:58:55.752Z,98483.78
2022-11-12T21:01:24.943Z,98492.47
2022-11-12T21:03:52.118Z,98515.13
2022-11-12T21:06:22.423Z,98478.81
2022-11-12T21:08:49.469Z,98499.59
2022-11-12T21:11:19.066Z,98495.28
2022-11-12T21:13:45.863Z,98525.66
2022-11-12T21:16:13.575Z,98506.69
2022-11-12T21:18:40.729Z,98488.59
2022-11-12T21:21:12.991Z,98485.97
2022-11-12T21:23:46.184Z,98480.03
2022-11-12T21:26:18.443Z,98458.44
2022-11-12T21:28:53.228Z,98488.66
2022-11-12T21:31:24.986Z,98478.28
2022-11-12T21:34:00.603Z,98508.63
2022-11-12T21:36:31.323Z,98526.88
2022-11-12T21:38:58.428Z,98503.53
2022-11-12T21:41:27.375Z,98531.22
2022-11-12T21:43:55.488Z,98512.25
2022-11-12T21:46:27.463Z,98501.06
2022-11-12T21:48:55.848Z,98498.47
2022-11-12T21:51:28.163Z,98506.16
2022-11-12T21:54:03.872Z,98522.63
2022-11-12T21:56:33.500Z,98503.66
2022-11-12T21:59:01.590Z,98522.75
2022-11-12T22:01:30.528Z,98543.50
2022-11-12T22:03:59.488Z,98539.19
2022-11-12T22:06:30.226Z,98537.41
2022-11-12T22:08:58.244Z,98535.78
2022-11-12T22:11:26.734Z,98531.50
2022-11-12T22:13:53.820Z,98528.06
2022-11-12T22:16:23.397Z,98536.69
2022-11-12T22:18:52.893Z,98544.50
2022-11-12T22:21:35.443Z,98586.03
2022-11-12T22:24:06.303Z,98557.53
2022-11-12T22:26:33.046Z,98559.31
2022-11-12T22:29:00.020Z,98548.97
2022-11-12T22:31:31.954Z,98515.34
2022-11-12T22:33:59.388Z,98523.91
2022-11-12T22:36:28.775Z,98556.03
2022-11-12T22:38:56.122Z,98559.53
2022-11-12T22:41:28.029Z,98519.72
2022-11-12T22:44:00.236Z,98551.78
2022-11-12T22:46:36.144Z,98537.97
2022-11-12T22:49:03.914Z,98600.25
2022-11-12T22:51:33.147Z,98552.78
2022-11-12T22:54:06.065Z,98542.47
2022-11-12T22:56:36.005Z,98543.38
2022-11-12T22:59:06.159Z,98573.59
2022-11-12T23:01:34.996Z,98589.22
2022-11-12T23:04:05.102Z,98539.13
2022-11-12T23:06:31.940Z,98543.50
2022-11-12T23:08:59.696Z,98540.94
2022-11-12T23:11:26.779Z,98535.75
2022-11-12T23:13:54.837Z,98539.25
2022-11-12T23:16:24.958Z,98558.28
2022-11-12T23:18:53.135Z,98589.47
2022-11-12T23:21:23.499Z,98577.34
2022-11-12T23:23:50.601Z,98553.22
2022-11-12T23:26:23.840Z,98535.97
2022-11-12T23:28:51.110Z,98567.13
2022-11-12T23:31:21.325Z,98543.69
2022-11-12T23:33:50.454Z,98534.16
2022-11-12T23:36:17.724Z,98513.47
2022-11-12T23:38:44.569Z,98547.31
2022-11-12T23:41:13.356Z,98542.13
2022-11-12T23:43:40.140Z,98557.69
2022-11-12T23:46:07.013Z,98555.16
2022-11-12T23:48:33.928Z,98600.06
2022-11-12T23:51:06.450Z,98572.44
2022-11-12T23:53:34.567Z,98544.81
2022-11-12T23:56:01.950Z,98572.53
2022-11-12T23:58:29.406Z,98624.31
